createdAt,value
2022-10-06T04:54:33.975Z,0.857143
2022-10-06T04:55:33.230Z,0.857143
2022-10-06T04:56:33.257Z,1.71429
2022-10-06T04:57:33.294Z,2.5
2022-10-06T04:58:33.338Z,3.35714
2022-10-06T04:59:33.374Z,4.21429
2022-10-06T05:00:33.407Z,5
2022-10-06T05:01:33.439Z,5
2022-10-06T05:02:33.575Z,6.71429
2022-10-06T05:03:33.508Z,7.5
2022-10-06T05:04:33.528Z,7.5
2022-10-06T05:05:33.561Z,8.35714
2022-10-06T05:06:33.601Z,10
2022-10-06T05:07:33.628Z,13.3571
2022-10-06T05:08:33.730Z,16.7143
2022-10-06T05:09:33.696Z,17.5
2022-10-06T05:10:33.732Z,20.8571
2022-10-06T05:11:33.759Z,22.5
2022-10-06T05:12:33.789Z,25.8571
2022-10-06T05:13:33.816Z,30
2022-10-06T05:14:33.848Z,35.8571
2022-10-06T05:15:33.889Z,40
2022-10-06T05:16:34.009Z,47.5
2022-10-06T05:17:33.954Z,50
2022-10-06T05:18:33.989Z,50
2022-10-06T05:19:34.029Z,55
2022-10-06T05:20:34.062Z,60.8571
2022-10-06T05:21:34.100Z,60.8571
2022-10-06T05:22:34.128Z,70.8571
2022-10-06T05:23:34.161Z,82.5
2022-10-06T05:24:34.188Z,84.2143
2022-10-06T05:25:34.216Z,95.8571
2022-10-06T05:26:34.245Z,106.714
2022-10-06T05:27:34.281Z,120
2022-10-06T05:28:34.635Z,135
2022-10-06T05:29:34.344Z,151.714
2022-10-06T05:30:34.388Z,148.357
2022-10-06T05:31:34.557Z,158.357
2022-10-06T05:32:36.089Z,155.857
2022-10-06T05:33:34.489Z,153.357
2022-10-06T05:34:34.528Z,161.714
2022-10-06T05:35:34.566Z,169.214
2022-10-06T05:36:34.606Z,169.214
2022-10-06T05:37:34.638Z,169.214
2022-10-06T05:38:34.675Z,175.857
2022-10-06T05:39:34.703Z,186.714
2022-10-06T05:40:34.742Z,191.714
2022-10-06T05:41:34.774Z,196.714
2022-10-06T05:42:34.800Z,205.857
2022-10-06T05:43:34.836Z,240
2022-10-06T05:44:34.866Z,275
2022-10-06T05:45:34.982Z,279.214
2022-10-06T05:46:34.936Z,260.857
2022-10-06T05:47:34.972Z,249.214
2022-10-06T05:48:35.004Z,245
2022-10-06T05:49:35.056Z,249.214
2022-10-06T05:50:35.118Z,255.857
2022-10-06T05:51:35.136Z,262.5
2022-10-06T05:52:35.160Z,268.357
2022-10-06T05:53:35.193Z,276.714
2022-10-06T05:54:35.235Z,285.857
2022-10-06T05:55:35.298Z,295
2022-10-06T05:56:35.314Z,305.857
2022-10-06T05:57:35.338Z,310
2022-10-06T05:58:35.693Z,317.5
2022-10-06T05:59:35.399Z,325.857
2022-10-06T06:00:35.433Z,333.357
2022-10-06T06:01:35.504Z,343.357
2022-10-06T06:02:35.596Z,352.5
2022-10-06T06:03:35.526Z,365
2022-10-06T06:04:35.555Z,380.857
2022-10-06T06:05:35.595Z,389.214
2022-10-06T06:06:35.631Z,397.5
2022-10-06T06:07:35.658Z,404.214
2022-10-06T06:08:35.690Z,410
2022-10-06T06:09:35.741Z,420
2022-10-06T06:10:35.766Z,429.214
2022-10-06T06:11:35.796Z,431.714
2022-10-06T06:12:35.822Z,446.714
2022-10-06T06:13:35.855Z,473.357
2022-10-06T06:14:35.891Z,502.5
2022-10-06T06:15:35.918Z,502.5
2022-10-06T06:16:36.027Z,511.714
2022-10-06T06:17:35.977Z,516.714
2022-10-06T06:18:36.005Z,522.5
2022-10-06T06:19:36.030Z,543.357
2022-10-06T06:20:36.061Z,540.857
2022-10-06T06:21:36.098Z,553.357
2022-10-06T06:22:36.132Z,565
2022-10-06T06:23:36.167Z,588.357
2022-10-06T06:24:36.197Z,643.357
2022-10-06T06:25:36.230Z,694.214
2022-10-06T06:26:36.273Z,702.5
2022-10-06T06:27:36.309Z,725.857
2022-10-06T06:28:36.381Z,804.214
2022-10-06T06:29:36.387Z,818.357
2022-10-06T06:30:36.413Z,687.5
2022-10-06T06:31:36.489Z,663.357
2022-10-06T06:32:36.466Z,694.214
2022-10-06T06:33:36.503Z,845.857
2022-10-06T06:34:36.536Z,1269.21
2022-10-06T06:35:36.574Z,1375.86
2022-10-06T06:36:36.604Z,1215.86
2022-10-06T06:37:36.637Z,1118.36
2022-10-06T06:38:36.667Z,1126.71
2022-10-06T06:39:36.710Z,1203.36
2022-10-06T06:40:36.740Z,1131.71
2022-10-06T06:41:36.767Z,1160.86
2022-10-06T06:42:36.801Z,885
2022-10-06T06:43:36.841Z,627.5
2022-10-06T06:44:36.866Z,571.714
2022-10-06T06:45:36.898Z,1089.21
2022-10-06T06:46:36.940Z,647.5
2022-10-06T06:47:36.956Z,1163.36
2022-10-06T06:48:36.996Z,1305.86
2022-10-06T06:49:37.028Z,951.714
2022-10-06T06:50:37.066Z,641.714
2022-10-06T06:51:37.093Z,613.357
2022-10-06T06:52:37.142Z,601.714
2022-10-06T06:53:37.163Z,602.5
2022-10-06T06:54:37.197Z,623.357
2022-10-06T06:55:37.228Z,666.714
2022-10-06T06:56:37.265Z,660.857
2022-10-06T06:57:37.298Z,648.357
2022-10-06T06:58:37.332Z,644.214
2022-10-06T06:59:37.453Z,654.214
2022-10-06T07:00:37.396Z,675.857
2022-10-06T07:01:37.503Z,630
2022-10-06T07:02:37.457Z,634.214
2022-10-06T07:03:56.683Z,640
2022-10-06T07:04:37.513Z,630.857
2022-10-06T07:05:37.556Z,629.214
2022-10-06T07:06:37.588Z,626.714
2022-10-06T07:07:37.629Z,627.5
2022-10-06T07:08:37.658Z,630
2022-10-06T07:09:37.692Z,625
2022-10-06T07:10:37.718Z,634.214
2022-10-06T07:11:37.756Z,641.714
2022-10-06T07:12:37.794Z,644.214
2022-10-06T07:13:37.827Z,648.357
2022-10-06T07:14:37.857Z,669.214
2022-10-06T07:15:37.939Z,697.5
2022-10-06T07:16:37.928Z,690.857
2022-10-06T07:17:37.971Z,665.857
2022-10-06T07:18:37.997Z,702.5
2022-10-06T07:19:38.034Z,726.714
2022-10-06T07:20:38.065Z,746.714
2022-10-06T07:21:38.102Z,721.714
2022-10-06T07:22:38.163Z,710
2022-10-06T07:23:38.160Z,746.714
2022-10-06T07:24:38.195Z,808.357
2022-10-06T07:25:38.224Z,1315
2022-10-06T07:26:38.265Z,1123.36
2022-10-06T07:27:38.303Z,1120
2022-10-06T07:28:38.421Z,947.5
2022-10-06T07:29:38.359Z,1683.36
2022-10-06T07:30:40.577Z,1425.86
2022-10-06T07:31:38.483Z,1863.36
2022-10-06T07:32:38.459Z,1782.5
2022-10-06T07:33:38.495Z,1103.36
2022-10-06T07:34:38.554Z,2400.86
2022-10-06T07:35:38.555Z,1062.5
2022-10-06T07:36:38.585Z,1531.71
2022-10-06T07:37:38.611Z,1896.71
2022-10-06T07:38:38.640Z,957.5
2022-10-06T07:39:38.678Z,1640
2022-10-06T07:40:46.350Z,1290
2022-10-06T07:41:38.741Z,2579.21
2022-10-06T07:42:38.770Z,1773.36
2022-10-06T07:43:38.803Z,1120.86
2022-10-06T07:44:38.831Z,990.857
2022-10-06T07:45:39.178Z,873.357
2022-10-06T07:46:38.897Z,1882.5
2022-10-06T07:47:38.930Z,989.214
2022-10-06T07:48:38.959Z,1211.71
2022-10-06T07:49:38.985Z,1855
2022-10-06T07:50:39.011Z,975
2022-10-06T07:51:39.043Z,760
2022-10-06T07:52:39.191Z,706.714
2022-10-06T07:53:39.110Z,851.714
2022-10-06T07:54:39.147Z,1153.36
2022-10-06T07:55:39.184Z,868.357
2022-10-06T07:56:39.215Z,1330.86
2022-10-06T07:57:39.249Z,1050
2022-10-06T07:58:39.286Z,940.857
2022-10-06T07:59:39.320Z,872.5
2022-10-06T08:00:39.363Z,740.857
2022-10-06T08:01:39.457Z,906.714
2022-10-06T08:02:39.476Z,801.714
2022-10-06T08:03:39.444Z,727.5
2022-10-06T08:04:39.474Z,749.214
2022-10-06T08:05:39.504Z,701.714
2022-10-06T08:06:39.541Z,677.5
2022-10-06T08:07:39.573Z,702.5
2022-10-06T08:08:39.610Z,679.214
2022-10-06T08:09:39.644Z,685
2022-10-06T08:10:39.675Z,830
2022-10-06T08:11:39.706Z,1030
2022-10-06T08:12:39.793Z,751.714
2022-10-06T08:13:39.767Z,869.214
2022-10-06T08:14:39.797Z,723.357
2022-10-06T08:15:39.882Z,801.714
2022-10-06T08:16:39.874Z,882.5
2022-10-06T08:17:39.902Z,818.357
2022-10-06T08:18:47.245Z,922.5
2022-10-06T08:19:39.974Z,764.214
2022-10-06T08:20:40.004Z,703.357
2022-10-06T08:21:40.036Z,694.214
2022-10-06T08:22:40.094Z,688.357
2022-10-06T08:23:40.099Z,689.214
2022-10-06T08:25:04.136Z,687.5
2022-10-06T08:25:40.158Z,700.857
2022-10-06T08:26:40.195Z,682.5
2022-10-06T08:27:40.224Z,701.714
2022-10-06T08:28:40.300Z,742.5
2022-10-06T08:29:40.301Z,680
2022-10-06T08:30:40.340Z,771.714
2022-10-06T08:31:40.407Z,805.857
2022-10-06T08:32:40.391Z,778.357
2022-10-06T08:33:40.424Z,1123.36
2022-10-06T08:34:40.463Z,1027.5
2022-10-06T08:35:40.495Z,998.357
2022-10-06T08:36:44.956Z,856.714
2022-10-06T08:37:40.569Z,848.357
2022-10-06T08:38:40.578Z,800.857
2022-10-06T08:39:40.603Z,787.5
2022-10-06T08:40:40.636Z,866.714
2022-10-06T08:41:40.679Z,1025.86
2022-10-06T08:42:40.715Z,980.857
2022-10-06T08:43:40.761Z,1051.71
2022-10-06T08:44:40.787Z,1568.36
2022-10-06T08:45:40.879Z,1555
2022-10-06T08:46:40.855Z,1270.86
2022-10-06T08:47:40.887Z,1186.71
2022-10-06T08:48:40.924Z,1742.5
2022-10-06T08:49:40.952Z,1660
2022-10-06T08:50:40.993Z,2088.36
2022-10-06T08:51:41.025Z,1427.5
2022-10-06T08:52:41.059Z,1935.86
2022-10-06T08:53:41.095Z,2419.21
2022-10-06T08:54:41.132Z,2320.86
2022-10-06T08:55:41.163Z,2046.71
2022-10-06T08:56:41.192Z,1118.36
2022-10-06T08:57:41.225Z,1816.71
2022-10-06T08:58:41.267Z,1773.36
2022-10-06T08:59:41.304Z,1000
2022-10-06T09:00:41.343Z,1460.86
2022-10-06T09:01:41.487Z,1419.21
2022-10-06T09:02:41.438Z,929.214
2022-10-06T09:03:41.420Z,894.214
2022-10-06T09:04:41.454Z,1082.5
2022-10-06T09:05:41.479Z,848.357
2022-10-06T09:06:41.565Z,747.5
2022-10-06T09:07:41.549Z,755.857
2022-10-06T09:08:41.584Z,770
2022-10-06T09:09:41.613Z,767.5
2022-10-06T09:10:41.663Z,757.5
2022-10-06T09:11:41.666Z,752.5
2022-10-06T09:12:41.696Z,824.214
2022-10-06T09:13:41.734Z,781.714
2022-10-06T09:14:41.771Z,775
2022-10-06T09:15:41.855Z,756.714
2022-10-06T09:16:41.852Z,750.857
2022-10-06T09:17:41.866Z,769.214
2022-10-06T09:19:41.932Z,764.214
2022-10-06T09:20:41.986Z,778.357
2022-10-06T09:21:41.999Z,787.5
2022-10-06T09:22:42.033Z,759.214
2022-10-06T09:23:42.060Z,750.857
2022-10-06T09:24:46.917Z,726.714
2022-10-06T09:25:42.136Z,721.714
2022-10-06T09:26:42.152Z,717.5
2022-10-06T09:27:42.183Z,816.714
2022-10-06T09:28:42.268Z,832.5
2022-10-06T09:29:42.244Z,1094.21
2022-10-06T09:30:42.278Z,966.714
2022-10-06T09:31:42.422Z,919.214
2022-10-06T09:32:42.355Z,1308.36
2022-10-06T09:33:42.387Z,750.857
2022-10-06T09:34:42.425Z,715.857
2022-10-06T09:35:42.455Z,983.357
2022-10-06T09:36:42.490Z,888.357
2022-10-06T09:37:42.512Z,721.714
2022-10-06T09:38:42.544Z,702.5
2022-10-06T09:39:42.571Z,777.5
2022-10-06T09:40:42.605Z,1508.36
2022-10-06T09:41:42.640Z,1880.86
2022-10-06T09:42:42.674Z,919.214
2022-10-06T09:43:42.706Z,815.857
2022-10-06T09:44:42.745Z,1830.86
2022-10-06T09:45:42.775Z,1045.86
2022-10-06T09:46:42.814Z,787.5
2022-10-06T09:47:42.861Z,728.357
2022-10-06T09:48:42.871Z,694.214
2022-10-06T09:49:42.926Z,658.357
2022-10-06T09:50:42.934Z,716.714
2022-10-06T09:51:42.964Z,715
2022-10-06T09:52:43.025Z,820
2022-10-06T09:53:43.024Z,674.214
2022-10-06T09:54:43.059Z,678.357
2022-10-06T09:55:43.100Z,630
2022-10-06T09:56:43.135Z,1010.86
2022-10-06T09:57:43.164Z,686.714
2022-10-06T09:58:43.187Z,669.214
2022-10-06T09:59:43.225Z,693.357
2022-10-06T10:00:43.318Z,789.214
2022-10-06T10:01:43.294Z,1259.21
2022-10-06T10:02:43.370Z,1130.86
2022-10-06T10:03:51.521Z,1656.71
2022-10-06T10:04:43.394Z,1804.21
2022-10-06T10:05:43.429Z,1600.86
2022-10-06T10:06:43.465Z,1552.5
2022-10-06T10:07:43.500Z,2201.71
2022-10-06T10:08:43.533Z,1361.71
2022-10-06T10:09:43.563Z,1333.36
2022-10-06T10:10:43.590Z,1934.21
2022-10-06T10:11:43.622Z,1336.71
2022-10-06T10:12:43.655Z,910.857
2022-10-06T10:13:43.695Z,1502.5
2022-10-06T10:14:43.713Z,1077.5
2022-10-06T10:15:43.828Z,1120
2022-10-06T10:16:43.784Z,1568.36
2022-10-06T10:17:43.812Z,1127.5
2022-10-06T10:18:43.846Z,1462.5
2022-10-06T10:19:43.879Z,1139.21
2022-10-06T10:20:43.915Z,882.5
2022-10-06T10:21:43.945Z,1140.86
2022-10-06T10:22:43.972Z,1394.21
2022-10-06T10:23:43.996Z,1298.36
2022-10-06T10:24:44.029Z,922.5
2022-10-06T10:25:44.059Z,1493.36
2022-10-06T10:26:44.093Z,1435.86
2022-10-06T10:27:44.129Z,1283.36
2022-10-06T10:28:44.201Z,1570
2022-10-06T10:29:44.187Z,932.5
2022-10-06T10:30:44.218Z,773.357
2022-10-06T10:31:44.330Z,1227.5
2022-10-06T10:32:44.293Z,1440
2022-10-06T10:33:53.949Z,1435
2022-10-06T10:34:44.344Z,1190.86
2022-10-06T10:35:44.377Z,1181.71
2022-10-06T10:36:44.406Z,1153.36
2022-10-06T10:37:44.441Z,891.714
2022-10-06T10:38:44.476Z,808.357
2022-10-06T10:39:44.513Z,1173.36
2022-10-06T10:40:44.544Z,850
2022-10-06T10:41:44.570Z,708.357
2022-10-06T10:42:44.601Z,678.357
2022-10-06T10:43:44.627Z,648.357
2022-10-06T10:44:44.664Z,691.714
2022-10-06T10:45:44.688Z,758.357
2022-10-06T10:46:44.910Z,777.5
2022-10-06T10:47:44.757Z,806.714
2022-10-06T10:48:44.785Z,1019.21
2022-10-06T10:49:44.815Z,930.857
2022-10-06T10:50:44.883Z,770.857
2022-10-06T10:51:44.884Z,746.714
2022-10-06T10:52:44.915Z,940.857
2022-10-06T10:53:44.949Z,776.714
2022-10-06T10:54:44.980Z,778.357
2022-10-06T10:55:45.038Z,1107.5
2022-10-06T10:56:45.044Z,1341.71
2022-10-06T10:57:45.082Z,2097.5
2022-10-06T10:58:45.112Z,2418.36
2022-10-06T10:59:45.150Z,1608.36
2022-10-06T11:00:45.240Z,1466.71
2022-10-06T11:01:45.284Z,1821.71
2022-10-06T11:02:45.252Z,1196.71
2022-10-06T11:03:45.289Z,805.857
2022-10-06T11:04:45.328Z,730
2022-10-06T11:05:45.368Z,726.714
2022-10-06T11:06:45.397Z,717.5
2022-10-06T11:07:45.456Z,704.214
2022-10-06T11:08:45.464Z,708.357
2022-10-06T11:09:45.500Z,710.857
2022-10-06T11:10:45.539Z,700
2022-10-06T11:11:49.862Z,690
2022-10-06T11:12:45.630Z,673.357
2022-10-06T11:13:45.647Z,742.5
2022-10-06T11:14:45.674Z,766.714
2022-10-06T11:15:45.706Z,876.714
2022-10-06T11:16:45.752Z,811.714
2022-10-06T11:17:45.782Z,840.857
2022-10-06T11:18:45.810Z,818.357
2022-10-06T11:19:45.841Z,728.357
2022-10-06T11:20:45.880Z,665
2022-10-06T11:21:45.911Z,668.357
2022-10-06T11:22:45.951Z,686.714
2022-10-06T11:23:45.983Z,714.214
2022-10-06T11:24:46.022Z,678.357
2022-10-06T11:25:46.044Z,670
2022-10-06T11:26:46.087Z,656.714
2022-10-06T11:27:46.118Z,693.357
2022-10-06T11:28:46.147Z,712.5
2022-10-06T11:29:46.180Z,731.714
2022-10-06T11:30:46.216Z,829.214
2022-10-06T11:31:46.289Z,1284.21
2022-10-06T11:32:46.287Z,919.214
2022-10-06T11:33:46.320Z,878.357
2022-10-06T11:34:46.348Z,1249.21
2022-10-06T11:35:46.379Z,1287.5
2022-10-06T11:36:46.415Z,1130.86
2022-10-06T11:37:46.454Z,1106.71
2022-10-06T11:38:46.493Z,1290.86
2022-10-06T11:39:46.521Z,1057.5
2022-10-06T11:40:46.554Z,1011.71
2022-10-06T11:41:46.588Z,830.857
2022-10-06T11:42:46.620Z,795.857
2022-10-06T11:43:46.656Z,859.214
2022-10-06T11:44:46.688Z,1390
2022-10-06T11:45:46.795Z,1838.36
2022-10-06T11:46:46.763Z,1855
2022-10-06T11:47:46.790Z,1706.71
2022-10-06T11:48:46.825Z,966.714
2022-10-06T11:49:46.854Z,744.214
2022-10-06T11:50:46.891Z,689.214
2022-10-06T11:51:46.924Z,682.5
2022-10-06T11:52:46.946Z,781.714
2022-10-06T11:53:46.976Z,695.857
2022-10-06T11:54:47.004Z,660
2022-10-06T11:55:47.049Z,705
2022-10-06T11:56:47.102Z,1142.5
2022-10-06T11:57:47.111Z,1297.5
2022-10-06T11:58:47.142Z,1002.5
2022-10-06T11:59:47.200Z,1170.86
2022-10-06T12:00:47.206Z,1370
2022-10-06T12:01:47.263Z,1315.86
2022-10-06T12:02:47.456Z,1215
2022-10-06T12:03:47.302Z,1084.21
2022-10-06T12:04:47.358Z,979.214
2022-10-06T12:05:56.275Z,1054.21
2022-10-06T12:06:47.411Z,1576.71
2022-10-06T12:07:47.432Z,1830.86
2022-10-06T12:08:47.474Z,2060.86
2022-10-06T12:09:52.031Z,1753.36
2022-10-06T12:10:47.545Z,2547.5
2022-10-06T12:11:47.570Z,1494.21
2022-10-06T12:13:05.402Z,1231.71
2022-10-06T12:17:12.698Z,1205.86
2022-10-06T12:17:47.759Z,1085
2022-10-06T12:18:47.795Z,900.857
2022-10-06T12:19:47.823Z,1029.21
2022-10-06T12:20:47.854Z,890.857
2022-10-06T12:21:47.898Z,716.714
2022-10-06T12:22:47.920Z,1055.86
2022-10-06T12:23:47.946Z,1995
2022-10-06T12:24:47.985Z,2096.71
2022-10-06T12:25:48.016Z,2041.71
2022-10-06T12:26:48.055Z,1384.21
2022-10-06T12:27:48.077Z,1300
2022-10-06T12:28:48.105Z,1062.5
2022-10-06T12:29:48.147Z,903.357
2022-10-06T12:30:48.440Z,1328.36
2022-10-06T12:31:48.207Z,1507.5
2022-10-06T12:32:48.243Z,1730
2022-10-06T12:33:48.280Z,1505.86
2022-10-06T12:34:48.319Z,1389.21
2022-10-06T12:35:48.353Z,948.357
2022-10-06T12:36:48.392Z,804.214
2022-10-06T12:37:53.779Z,706.714
2022-10-06T12:38:48.455Z,657.5
2022-10-06T12:39:48.488Z,647.5
2022-10-06T12:40:48.518Z,629.214
2022-10-06T12:41:48.559Z,624.214
2022-10-06T12:42:48.601Z,626.714
2022-10-06T12:43:48.639Z,663.357
2022-10-06T12:44:48.675Z,685.857
2022-10-06T12:45:48.782Z,673.357
2022-10-06T12:46:48.740Z,726.714
2022-10-06T12:47:48.771Z,679.214
2022-10-06T12:48:48.803Z,652.5
2022-10-06T12:49:48.872Z,659.214
2022-10-06T12:50:48.879Z,644.214
2022-10-06T12:51:48.919Z,626.714
2022-10-06T12:52:48.945Z,625.857
2022-10-06T12:53:48.980Z,634.214
2022-10-06T12:54:49.016Z,623.357
2022-10-06T12:55:49.049Z,614.214
2022-10-06T12:56:49.077Z,613.357
2022-10-06T12:57:49.131Z,631.714
2022-10-06T12:58:49.148Z,608.357
2022-10-06T12:59:49.179Z,630
2022-10-06T13:00:49.222Z,636.714
2022-10-06T13:01:49.247Z,624.214
2022-10-06T13:02:49.313Z,608.357
2022-10-06T13:03:49.320Z,600.857
2022-10-06T13:04:49.373Z,590
2022-10-06T13:05:49.389Z,582.5
2022-10-06T13:06:49.422Z,582.5
2022-10-06T13:07:49.461Z,631.714
2022-10-06T13:08:49.497Z,617.5
2022-10-06T13:09:49.524Z,833.357
2022-10-06T13:10:49.560Z,719.214
2022-10-06T13:11:49.585Z,630
2022-10-06T13:12:49.621Z,663.357
2022-10-06T13:13:49.650Z,643.357
2022-10-06T13:14:49.691Z,590.857
2022-10-06T13:15:49.720Z,586.714
2022-10-06T13:16:49.795Z,873.357
2022-10-06T13:17:49.788Z,1262.5
2022-10-06T13:18:49.819Z,1068.36
2022-10-06T13:19:49.855Z,951.714
2022-10-06T13:20:49.891Z,859.214
2022-10-06T13:21:49.981Z,934.214
2022-10-06T13:22:49.957Z,673.357
2022-10-06T13:23:50.001Z,626.714
2022-10-06T13:24:50.031Z,599.214
2022-10-06T13:25:50.072Z,583.357
2022-10-06T13:26:50.111Z,722.5
2022-10-06T13:27:50.166Z,941.714
2022-10-06T13:28:50.186Z,715.857
2022-10-06T13:29:50.218Z,616.714
2022-10-06T13:30:50.313Z,729.214
2022-10-06T13:31:52.757Z,648.357
2022-10-06T13:32:50.304Z,620
2022-10-06T13:33:50.336Z,643.357
2022-10-06T13:34:50.377Z,660
2022-10-06T13:35:50.405Z,847.5
2022-10-06T13:36:50.442Z,1034.21
2022-10-06T13:37:50.468Z,785
2022-10-06T13:38:50.530Z,649.214
2022-10-06T13:39:50.534Z,647.5
2022-10-06T13:40:50.562Z,628.357
2022-10-06T13:41:50.598Z,635
2022-10-06T13:42:50.634Z,675.857
2022-10-06T13:43:50.671Z,871.714
2022-10-06T13:44:50.713Z,838.357
2022-10-06T13:45:50.799Z,623.357
2022-10-06T13:46:50.783Z,590
2022-10-06T13:47:50.817Z,593.357
2022-10-06T13:48:50.851Z,641.714
2022-10-06T13:49:50.880Z,550.857
2022-10-06T13:50:50.967Z,566.714
2022-10-06T13:51:50.947Z,548.357
2022-10-06T13:52:50.978Z,545
2022-10-06T13:53:51.014Z,535
2022-10-06T13:54:51.054Z,530.857
2022-10-06T13:55:51.092Z,526.714
2022-10-06T13:56:51.122Z,529.214
2022-10-06T13:57:51.161Z,526.714
2022-10-06T13:58:51.200Z,522.5
2022-10-06T13:59:51.238Z,519.214
2022-10-06T14:00:51.276Z,519.214
2022-10-06T14:01:51.353Z,521.714
2022-10-06T14:02:51.402Z,521.714
2022-10-06T14:03:51.378Z,521.714
2022-10-06T14:04:51.396Z,533.357
2022-10-06T14:05:51.434Z,534.214
2022-10-06T14:06:51.469Z,541.714
2022-10-06T14:07:51.495Z,555
2022-10-06T14:08:51.533Z,545
2022-10-06T14:09:51.560Z,538.357
2022-10-06T14:10:51.600Z,572.5
2022-10-06T14:11:51.637Z,539.214
2022-10-06T14:12:51.675Z,575.857
2022-10-06T14:13:51.701Z,551.714
2022-10-06T14:14:51.732Z,545.857
2022-10-06T14:15:51.887Z,538.357
2022-10-06T14:16:51.818Z,539.214
2022-10-06T14:17:51.838Z,539.214
2022-10-06T14:18:51.912Z,550.857
2022-10-06T14:19:51.912Z,578.357
2022-10-06T14:20:51.944Z,633.357
2022-10-06T14:21:51.986Z,735
2022-10-06T14:22:52.015Z,758.357
2022-10-06T14:23:52.050Z,622.5
2022-10-06T14:24:52.085Z,555
2022-10-06T14:25:52.107Z,523.357
2022-10-06T14:26:52.143Z,505
2022-10-06T14:27:52.198Z,501.714
2022-10-06T14:28:52.204Z,500.857
2022-10-06T14:29:52.235Z,501.714
2022-10-06T14:30:52.302Z,500.857
2022-10-06T14:31:52.300Z,499.214
2022-10-06T14:32:52.355Z,499.214
2022-10-06T14:33:52.368Z,500
2022-10-06T14:34:52.398Z,503.357
2022-10-06T14:35:52.441Z,525
2022-10-06T14:36:52.488Z,518.357
2022-10-06T14:37:52.523Z,520
2022-10-06T14:38:52.557Z,515
2022-10-06T14:39:52.590Z,499.214
2022-10-06T14:40:52.619Z,490.857
2022-10-06T14:41:52.651Z,486.714
2022-10-06T14:42:52.688Z,484.214
2022-10-06T14:43:52.716Z,482.5
2022-10-06T14:44:52.754Z,481.714
2022-10-06T14:45:52.793Z,480
2022-10-06T14:46:52.815Z,480
2022-10-06T14:47:52.846Z,480
2022-10-06T14:48:52.876Z,477.5
2022-10-06T14:49:52.911Z,475.857
2022-10-06T14:50:52.943Z,474.214
2022-10-06T14:51:52.972Z,473.357
2022-10-06T14:52:52.999Z,472.5
2022-10-06T14:53:53.031Z,465.857
2022-10-06T14:54:53.063Z,466.714
2022-10-06T14:55:53.091Z,465
2022-10-06T14:56:53.123Z,462.5
2022-10-06T14:57:53.155Z,460.857
2022-10-06T14:58:53.189Z,459.214
2022-10-06T14:59:53.222Z,456.714
2022-10-06T15:00:53.253Z,455
2022-10-06T15:01:53.295Z,452.5
2022-10-06T15:02:53.485Z,450.857
2022-10-06T15:03:53.550Z,448.357
2022-10-06T15:04:54.410Z,446.714
2022-10-06T15:05:53.421Z,445.857
2022-10-06T15:06:53.455Z,444.214
2022-10-06T15:07:53.491Z,442.5
2022-10-06T15:08:53.524Z,440.857
2022-10-06T15:09:53.562Z,437.5
2022-10-06T15:10:53.590Z,436.714
2022-10-06T15:11:53.669Z,434.214
2022-10-06T15:12:53.662Z,431.714
2022-10-06T15:13:53.702Z,429.214
2022-10-06T15:14:53.740Z,426.714
2022-10-06T15:15:53.794Z,424.214
2022-10-06T15:16:53.795Z,421.714
2022-10-06T15:17:53.825Z,420
2022-10-06T15:18:53.860Z,418.357
2022-10-06T15:19:53.894Z,415
2022-10-06T15:20:53.921Z,412.5
2022-10-06T15:21:53.962Z,408.357
2022-10-06T15:22:54.002Z,406.714
2022-10-06T15:23:54.031Z,404.214
2022-10-06T15:24:54.066Z,401.714
2022-10-06T15:25:54.098Z,399.214
2022-10-06T15:26:54.137Z,395.857
2022-10-06T15:27:54.166Z,393.357
2022-10-06T15:28:54.198Z,390
2022-10-06T15:29:54.270Z,384.214
2022-10-06T15:30:54.338Z,384.214
2022-10-06T15:31:54.301Z,380.857
2022-10-06T15:32:54.330Z,377.5
2022-10-06T15:33:54.368Z,375
2022-10-06T15:34:54.395Z,370.857
2022-10-06T15:35:54.430Z,367.5
2022-10-06T15:36:54.467Z,363.357
2022-10-06T15:37:54.504Z,359.214
2022-10-06T15:38:54.546Z,355
2022-10-06T15:39:54.576Z,350
2022-10-06T15:40:54.612Z,345.857
2022-10-06T15:41:54.643Z,342.5
2022-10-06T15:42:54.671Z,338.357
2022-10-06T15:43:54.714Z,334.214
2022-10-06T15:44:54.740Z,330.857
2022-10-06T15:45:54.770Z,326.714
2022-10-06T15:46:54.942Z,322.5
2022-10-06T15:47:54.848Z,317.5
2022-10-06T15:48:54.887Z,312.5
2022-10-06T15:49:54.915Z,308.357
2022-10-06T15:50:54.944Z,303.357
2022-10-06T15:51:54.975Z,298.357
2022-10-06T15:52:55.007Z,293.357
2022-10-06T15:53:55.047Z,288.357
2022-10-06T15:54:55.080Z,283.357
2022-10-06T15:55:55.114Z,278.357
2022-10-06T15:56:55.149Z,273.357
2022-10-06T15:57:55.184Z,268.357
2022-10-06T15:58:55.211Z,262.5
2022-10-06T15:59:55.249Z,256.714
2022-10-06T16:00:55.278Z,250.857
2022-10-06T16:01:55.477Z,245
2022-10-06T16:02:55.431Z,239.214
2022-10-06T16:03:55.384Z,233.357
2022-10-06T16:04:55.402Z,227.5
2022-10-06T16:05:55.444Z,221.714
2022-10-06T16:06:55.471Z,215.857
2022-10-06T16:07:55.504Z,209.214
2022-10-06T16:08:55.536Z,202.5
2022-10-06T16:09:55.572Z,196.714
2022-10-06T16:10:55.609Z,190
2022-10-06T16:11:55.645Z,183.357
2022-10-06T16:12:55.673Z,176.714
2022-10-06T16:13:55.703Z,170
2022-10-06T16:14:55.738Z,163.357
2022-10-06T16:15:55.860Z,155.857
2022-10-06T16:16:55.821Z,149.214
2022-10-06T16:17:55.851Z,142.5
2022-10-06T16:18:55.879Z,135.857
2022-10-06T16:19:55.992Z,129.214
2022-10-06T16:20:55.945Z,122.5
2022-10-06T16:21:58.984Z,115.857
2022-10-06T16:22:56.008Z,109.214
2022-10-06T16:23:56.043Z,102.5
2022-10-06T16:24:56.079Z,96.7143
2022-10-06T16:25:56.105Z,90
2022-10-06T16:26:56.140Z,84.2143
2022-10-06T16:27:56.212Z,78.3571
2022-10-06T16:28:56.205Z,72.5
2022-10-06T16:29:56.255Z,67.5
2022-10-06T16:30:56.373Z,61.7143
2022-10-06T16:31:56.417Z,56.7143
2022-10-06T16:32:56.355Z,51.7143
2022-10-06T16:33:56.378Z,46.7143
2022-10-06T16:34:56.412Z,42.5
2022-10-06T16:35:56.450Z,38.3571
2022-10-06T16:36:56.488Z,34.2143
2022-10-06T16:37:56.518Z,30.8571
2022-10-06T16:38:56.550Z,27.5
2022-10-06T16:39:56.586Z,24.2143
2022-10-06T16:40:56.625Z,21.7143
2022-10-06T16:41:56.655Z,18.3571
2022-10-06T16:42:56.695Z,15.8571
2022-10-06T16:43:56.727Z,14.2143
2022-10-06T16:44:56.762Z,11.7143
2022-10-06T16:46:01.820Z,10
2022-10-06T16:46:56.922Z,8.35714
2022-10-06T16:47:56.853Z,7.5
2022-10-06T16:48:56.884Z,5.85714
2022-10-06T16:49:56.925Z,5
2022-10-06T16:50:56.958Z,4.21429
2022-10-06T16:51:56.990Z,3.35714
2022-10-06T16:52:57.020Z,2.5
2022-10-06T16:53:57.061Z,1.71429
2022-10-06T16:54:57.090Z,1.71429
2022-10-06T16:55:57.120Z,0.857143
2022-10-06T16:56:57.160Z,0.857143
